createdAt,value
2018-09-02T00:01:08.359Z,4
2018-09-02T00:11:20.443Z,8
2018-09-02T00:21:24.976Z,5
2018-09-02T00:31:21.479Z,5
2018-09-02T00:41:22.479Z,5
2018-09-02T00:51:22.642Z,6
2018-09-02T01:01:21.729Z,8
2018-09-02T01:11:20.878Z,9
2018-09-02T01:21:21.485Z,6
2018-09-02T01:31:23.512Z,7
2018-09-02T01:41:22.989Z,8
2018-09-02T01:51:22.426Z,8
2018-09-02T02:01:23.508Z,8
2018-09-02T02:11:24.826Z,12
2018-09-02T02:21:23.920Z,8
2018-09-02T02:31:25.430Z,8
2018-09-02T02:41:20.691Z,9
2018-09-02T02:51:21.660Z,8
2018-09-02T03:01:22.538Z,17
2018-09-02T03:11:24.548Z,11
2018-09-02T03:21:12.131Z,9
2018-09-02T03:31:26.848Z,11
2018-09-02T03:41:24.752Z,13
2018-09-02T03:51:24.972Z,13
2018-09-02T04:00:22.637Z,13
2018-09-02T04:09:54.661Z,14
2018-09-02T04:19:54.623Z,13
2018-09-02T04:29:54.651Z,16
2018-09-02T04:39:54.698Z,16
2018-09-02T04:49:54.771Z,15
2018-09-02T05:10:40.139Z,14
2018-09-02T05:11:20.605Z,16
2018-09-02T05:21:20.728Z,17
2018-09-02T05:31:20.635Z,13
2018-09-02T05:41:20.691Z,15
2018-09-02T05:51:20.696Z,12
2018-09-02T06:01:30.679Z,14
2018-09-02T06:11:20.659Z,15
2018-09-02T06:21:20.821Z,14
2018-09-02T06:31:20.676Z,10
2018-09-02T06:41:20.870Z,12
2018-09-02T06:51:23.577Z,19
2018-09-02T07:01:20.935Z,9
2018-09-02T07:11:20.715Z,9
2018-09-02T07:21:22.898Z,9
2018-09-02T07:31:20.761Z,8
2018-09-02T07:41:21.341Z,6
2018-09-02T07:51:20.766Z,6
2018-09-02T08:01:20.735Z,5
2018-09-02T08:11:20.815Z,6
2018-09-02T08:21:20.724Z,4
2018-09-02T08:31:21.406Z,5
2018-09-02T08:41:20.787Z,3
2018-09-02T08:57:49.543Z,3
2018-09-02T09:01:20.797Z,2
2018-09-02T09:11:25.594Z,3
2018-09-02T09:21:21.227Z,3
2018-09-02T09:31:20.871Z,4
2018-09-02T09:41:20.835Z,2
2018-09-02T09:51:20.907Z,3
2018-09-02T10:01:20.973Z,3
2018-09-02T10:11:20.999Z,3
2018-09-02T10:21:20.850Z,4
2018-09-02T10:31:20.809Z,2
2018-09-02T10:41:20.831Z,3
2018-09-02T10:51:20.869Z,3
2018-09-02T11:01:20.815Z,3
2018-09-02T11:11:20.905Z,4
2018-09-02T11:21:21.073Z,2
2018-09-02T11:31:20.977Z,4
2018-09-02T11:41:20.888Z,2
2018-09-02T11:51:20.864Z,4
2018-09-02T12:01:21.038Z,11
2018-09-02T12:11:20.945Z,6
2018-09-02T12:21:20.848Z,8
2018-09-02T12:31:20.894Z,6
2018-09-02T12:41:20.980Z,4
2018-09-02T12:51:20.918Z,3
2018-09-02T13:01:21.032Z,3
2018-09-02T13:11:20.838Z,3
2018-09-02T13:21:20.857Z,3
2018-09-02T13:31:20.872Z,2
2018-09-02T13:41:21.155Z,2
2018-09-02T13:51:21.049Z,3
2018-09-02T14:01:20.889Z,3
2018-09-02T14:11:20.969Z,4
2018-09-02T14:21:21.030Z,2
2018-09-02T14:31:21.040Z,2
2018-09-02T14:41:21.088Z,4
2018-09-02T14:51:21.056Z,2
2018-09-02T15:01:21.073Z,3
2018-09-02T15:11:21.007Z,3
2018-09-02T15:21:21.100Z,2
2018-09-02T15:31:20.978Z,3
2018-09-02T15:41:21.307Z,2
2018-09-02T15:51:21.032Z,3
2018-09-02T16:01:20.963Z,2
2018-09-02T16:11:20.933Z,3
2018-09-02T16:21:26.178Z,2
2018-09-02T16:31:20.992Z,3
2018-09-02T16:41:21.063Z,3
2018-09-02T16:51:20.919Z,3
2018-09-02T17:01:20.893Z,3
2018-09-02T17:11:21.020Z,2
2018-09-02T17:21:20.968Z,3
2018-09-02T17:31:20.983Z,3
2018-09-02T17:41:20.932Z,2
2018-09-02T17:51:20.965Z,2
2018-09-02T18:01:21.134Z,3
2018-09-02T18:11:21.938Z,3
2018-09-02T18:21:22.189Z,5
2018-09-02T18:31:24.016Z,3
2018-09-02T18:41:24.062Z,5
2018-09-02T18:51:24.244Z,4
2018-09-02T19:01:22.458Z,3
2018-09-02T19:11:23.304Z,3
2018-09-02T19:21:22.591Z,3
2018-09-02T19:31:22.988Z,3
2018-09-02T19:41:22.425Z,3
2018-09-02T19:51:22.059Z,3
2018-09-02T20:01:21.420Z,3
2018-09-02T20:11:21.059Z,3
2018-09-02T20:21:21.055Z,5
2018-09-02T20:31:21.037Z,3
2018-09-02T20:41:21.039Z,5
2018-09-02T20:51:21.064Z,4
2018-09-02T21:01:21.114Z,3
2018-09-02T21:11:21.049Z,4
2018-09-02T21:21:21.200Z,5
2018-09-02T21:31:21.179Z,4
2018-09-02T21:41:21.277Z,5
2018-09-02T21:51:21.109Z,4
2018-09-02T22:01:21.122Z,4
2018-09-02T22:11:21.150Z,4
2018-09-02T22:21:21.154Z,3
2018-09-02T22:31:21.294Z,4
2018-09-02T22:41:21.259Z,6
2018-09-02T22:51:21.201Z,8
2018-09-02T23:01:21.196Z,4
2018-09-02T23:11:21.339Z,5
2018-09-02T23:21:21.342Z,3
2018-09-02T23:31:21.246Z,3
2018-09-02T23:41:21.232Z,5
2018-09-02T23:51:21.218Z,4
